createdAt,value
2024-02-28T00:00:27.134Z,99263.18
2024-02-28T00:01:20.834Z,99264.23
2024-02-28T00:01:54.999Z,99265.02
2024-02-28T00:02:29.528Z,99263.13
2024-02-28T00:03:03.621Z,99264.16
2024-02-28T00:03:37.419Z,99263.55
2024-02-28T00:04:11.101Z,99264.64
2024-02-28T00:04:44.586Z,99265.25
2024-02-28T00:05:18.257Z,99264.87
2024-02-28T00:05:52.047Z,99262.30
2024-02-28T00:06:25.620Z,99263.99
2024-02-28T00:07:00.073Z,99264.16
2024-02-28T00:07:33.633Z,99263.11
2024-02-28T00:08:07.146Z,99264.83
2024-02-28T00:08:40.736Z,99265.35
2024-02-28T00:09:17.532Z,99265.64
2024-02-28T00:09:51.434Z,99267.77
2024-02-28T00:10:24.961Z,99267.27
2024-02-28T00:10:58.752Z,99265.91
2024-02-28T00:11:32.275Z,99266.50
2024-02-28T00:12:05.813Z,99267.96
2024-02-28T00:12:39.942Z,99266.36
2024-02-28T00:13:13.530Z,99271.79
2024-02-28T00:13:47.090Z,99266.23
2024-02-28T00:14:20.388Z,99269.30
2024-02-28T00:14:53.776Z,99268.77
2024-02-28T00:15:27.387Z,99267.46
2024-02-28T00:16:00.862Z,99268.83
2024-02-28T00:16:35.124Z,99270.88
2024-02-28T00:17:09.138Z,99270.35
2024-02-28T00:17:43.042Z,99273.19
2024-02-28T00:18:16.719Z,99269.92
2024-02-28T00:18:50.234Z,99272.02
2024-02-28T00:19:26.344Z,99270.70
2024-02-28T00:19:59.724Z,99270.66
2024-02-28T00:20:33.574Z,99271.39
2024-02-28T00:21:06.912Z,99272.42
2024-02-28T00:21:43.708Z,99274.61
2024-02-28T00:22:17.522Z,99275.55
2024-02-28T00:22:50.859Z,99274.99
2024-02-28T00:23:24.388Z,99273.79
2024-02-28T00:23:58.146Z,99274.98
2024-02-28T00:24:31.625Z,99273.50
2024-02-28T00:25:08.034Z,99273.73
2024-02-28T00:25:41.649Z,99272.75
2024-02-28T00:26:15.138Z,99273.33
2024-02-28T00:26:48.403Z,99272.75
2024-02-28T00:27:22.677Z,99271.40
2024-02-28T00:27:56.059Z,99272.61
2024-02-28T00:28:29.464Z,99271.05
2024-02-28T00:29:03.886Z,99268.41
2024-02-28T00:29:38.205Z,99269.55
2024-02-28T00:30:11.982Z,99269.36
2024-02-28T00:30:45.646Z,99271.05
2024-02-28T00:31:20.891Z,99268.97
2024-02-28T00:31:54.796Z,99270.29
2024-02-28T00:32:28.312Z,99265.27
2024-02-28T00:33:01.973Z,99265.92
2024-02-28T00:33:35.394Z,99268.64
2024-02-28T00:34:10.423Z,99270.46
2024-02-28T00:34:44.563Z,99272.45
2024-02-28T00:35:18.266Z,99271.17
2024-02-28T00:35:51.950Z,99271.45
2024-02-28T00:36:26.447Z,99270.77
2024-02-28T00:37:00.818Z,99269.02
2024-02-28T00:37:34.459Z,99270.42
2024-02-28T00:38:07.935Z,99265.66
2024-02-28T00:38:41.933Z,99266.05
2024-02-28T00:39:15.866Z,99267.14
2024-02-28T00:39:49.816Z,99265.67
2024-02-28T00:40:23.805Z,99265.70
2024-02-28T00:40:57.229Z,99269.06
2024-02-28T00:41:30.702Z,99266.00
2024-02-28T00:42:04.183Z,99265.55
2024-02-28T00:42:37.773Z,99268.52
2024-02-28T00:43:11.241Z,99268.74
2024-02-28T00:43:44.427Z,99266.98
2024-02-28T00:44:17.845Z,99266.35
2024-02-28T00:44:51.311Z,99264.76
2024-02-28T00:45:25.237Z,99269.46
2024-02-28T00:45:59.839Z,99267.95
2024-02-28T00:46:33.149Z,99267.27
2024-02-28T00:47:06.766Z,99267.98
2024-02-28T00:47:41.854Z,99268.90
2024-02-28T00:48:15.707Z,99270.98
2024-02-28T00:48:49.368Z,99268.79
2024-02-28T00:49:22.974Z,99266.91
2024-02-28T00:49:56.455Z,99268.48
2024-02-28T00:50:30.441Z,99265.38
2024-02-28T00:51:04.840Z,99266.45
2024-02-28T00:51:38.841Z,99265.42
2024-02-28T00:52:12.566Z,99264.58
2024-02-28T00:52:46.016Z,99266.54
2024-02-28T00:53:19.519Z,99263.14
2024-02-28T00:53:53.010Z,99264.99
2024-02-28T00:54:27.544Z,99263.70
2024-02-28T00:55:01.376Z,99264.45
2024-02-28T00:55:35.003Z,99262.20
2024-02-28T00:56:08.588Z,99261.44
2024-02-28T00:56:42.189Z,99262.41
2024-02-28T00:57:15.577Z,99261.23
2024-02-28T00:57:49.080Z,99263.21
2024-02-28T00:58:22.715Z,99263.54
2024-02-28T00:58:56.346Z,99262.96
2024-02-28T00:59:30.078Z,99264.55
2024-02-28T01:00:03.686Z,99263.27
2024-02-28T01:00:37.352Z,99261.44
2024-02-28T01:01:11.169Z,99261.36
2024-02-28T01:01:44.804Z,99261.98
2024-02-28T01:02:18.134Z,99264.23
2024-02-28T01:02:51.522Z,99264.16
2024-02-28T01:03:25.534Z,99264.91
2024-02-28T01:03:59.172Z,99262.84
2024-02-28T01:04:32.586Z,99264.41
2024-02-28T01:05:06.103Z,99263.69
2024-02-28T01:05:39.558Z,99262.05
2024-02-28T01:06:12.937Z,99260.16
2024-02-28T01:06:46.489Z,99260.77
2024-02-28T01:07:20.020Z,99259.92
2024-02-28T01:07:53.399Z,99261.23
2024-02-28T01:08:26.885Z,99262.46
2024-02-28T01:09:00.290Z,99264.48
2024-02-28T01:09:33.969Z,99265.11
2024-02-28T01:10:08.055Z,99265.06
2024-02-28T01:10:42.343Z,99265.64
2024-02-28T01:11:17.572Z,99263.16
2024-02-28T01:11:51.340Z,99266.21
2024-02-28T01:12:24.673Z,99269.18
2024-02-28T01:12:57.923Z,99268.88
2024-02-28T01:13:31.240Z,99267.15
2024-02-28T01:14:05.204Z,99265.42
2024-02-28T01:14:38.798Z,99264.77
2024-02-28T01:15:12.433Z,99265.77
2024-02-28T01:15:46.099Z,99266.58
2024-02-28T01:16:19.598Z,99266.09
2024-02-28T01:16:53.245Z,99267.15
2024-02-28T01:17:26.966Z,99266.95
2024-02-28T01:18:00.481Z,99262.94
2024-02-28T01:18:34.147Z,99264.86
2024-02-28T01:19:07.593Z,99265.41
2024-02-28T01:19:41.090Z,99267.31
2024-02-28T01:20:15.997Z,99265.23
2024-02-28T01:20:49.298Z,99265.44
2024-02-28T01:21:22.816Z,99268.96
2024-02-28T01:21:56.503Z,99263.81
2024-02-28T01:22:31.901Z,99263.53
2024-02-28T01:23:05.589Z,99264.59
2024-02-28T01:23:38.961Z,99265.62
2024-02-28T01:24:12.455Z,99263.92
2024-02-28T01:24:45.862Z,99265.48
2024-02-28T01:25:20.051Z,99265.87
2024-02-28T01:25:54.274Z,99264.37
2024-02-28T01:26:28.041Z,99268.02
2024-02-28T01:27:01.535Z,99267.20
2024-02-28T01:27:34.930Z,99267.45
2024-02-28T01:28:08.717Z,99266.70
2024-02-28T01:28:44.435Z,99264.42
2024-02-28T01:29:17.782Z,99267.94
2024-02-28T01:29:51.387Z,99266.01
2024-02-28T01:30:25.220Z,99265.85
2024-02-28T01:30:59.689Z,99264.84
2024-02-28T01:31:33.132Z,99270.64
2024-02-28T01:32:06.467Z,99268.98
2024-02-28T01:32:40.021Z,99268.86
2024-02-28T01:33:15.309Z,99269.30
2024-02-28T01:33:49.674Z,99268.38
2024-02-28T01:34:23.164Z,99267.52
2024-02-28T01:34:56.762Z,99263.88
2024-02-28T01:35:30.047Z,99264.39
2024-02-28T01:36:03.766Z,99266.08
2024-02-28T01:36:37.041Z,99267.08
2024-02-28T01:37:10.509Z,99264.88
2024-02-28T01:37:43.893Z,99267.48
2024-02-28T01:38:17.965Z,99264.80
2024-02-28T01:38:51.596Z,99267.17
2024-02-28T01:39:25.005Z,99265.95
2024-02-28T01:39:58.604Z,99262.83
2024-02-28T01:40:32.228Z,99264.80
2024-02-28T01:41:06.833Z,99261.50
2024-02-28T01:41:40.300Z,99264.31
2024-02-28T01:42:15.660Z,99267.96
2024-02-28T01:42:49.441Z,99267.63
2024-02-28T01:43:23.035Z,99267.55
2024-02-28T01:43:56.388Z,99270.10
2024-02-28T01:44:29.842Z,99269.33
2024-02-28T01:45:03.481Z,99267.00
2024-02-28T01:45:37.329Z,99266.89
2024-02-28T01:46:18.457Z,99269.89
2024-02-28T01:46:52.634Z,99272.25
2024-02-28T01:47:26.206Z,99272.21
2024-02-28T01:48:00.682Z,99271.61
2024-02-28T01:48:34.325Z,99274.58
2024-02-28T01:49:08.669Z,99273.48
2024-02-28T01:49:43.517Z,99272.30
2024-02-28T01:50:17.229Z,99272.70
2024-02-28T01:50:51.040Z,99272.46
2024-02-28T01:51:26.100Z,99270.96
2024-02-28T01:52:00.010Z,99270.50
2024-02-28T01:52:33.671Z,99275.38
2024-02-28T01:53:08.542Z,99272.23
2024-02-28T01:53:41.931Z,99269.98
2024-02-28T01:54:15.863Z,99274.56
2024-02-28T01:54:49.573Z,99274.59
2024-02-28T01:55:23.264Z,99275.14
2024-02-28T01:55:58.452Z,99272.33
2024-02-28T01:56:32.092Z,99274.12
2024-02-28T01:57:06.349Z,99272.03
2024-02-28T01:57:40.215Z,99273.32
2024-02-28T01:58:14.031Z,99275.11
2024-02-28T01:58:48.502Z,99273.71
2024-02-28T01:59:24.455Z,99273.19
2024-02-28T01:59:58.055Z,99270.61
2024-02-28T02:00:32.087Z,99269.48
2024-02-28T02:01:08.348Z,99269.20
2024-02-28T02:01:41.716Z,99268.48
2024-02-28T02:02:15.058Z,99268.30
2024-02-28T02:02:48.734Z,99268.95
2024-02-28T02:03:22.230Z,99268.98
2024-02-28T02:03:56.127Z,99270.21
2024-02-28T02:04:30.381Z,99268.21
2024-02-28T02:05:04.227Z,99267.39
2024-02-28T02:05:37.705Z,99267.71
2024-02-28T02:06:11.442Z,99269.73
2024-02-28T02:06:47.007Z,99268.57
2024-02-28T02:07:21.266Z,99265.96
2024-02-28T02:07:55.334Z,99266.20
2024-02-28T02:08:29.148Z,99268.95
2024-02-28T02:09:03.213Z,99267.74
2024-02-28T02:09:37.103Z,99266.57
2024-02-28T02:10:14.035Z,99265.35
2024-02-28T02:10:48.362Z,99268.55
2024-02-28T02:11:23.144Z,99268.41
2024-02-28T02:11:56.512Z,99267.92
2024-02-28T02:12:30.136Z,99267.27
2024-02-28T02:13:07.440Z,99267.08
2024-02-28T02:13:51.399Z,99269.00
2024-02-28T02:14:24.893Z,99269.12
2024-02-28T02:14:58.514Z,99270.84
2024-02-28T02:15:32.854Z,99269.63
2024-02-28T02:16:06.540Z,99269.12
2024-02-28T02:16:39.835Z,99268.30
2024-02-28T02:17:13.423Z,99270.88
2024-02-28T02:17:46.839Z,99268.98
2024-02-28T02:18:20.602Z,99272.57
2024-02-28T02:18:54.418Z,99268.38
2024-02-28T02:19:28.326Z,99269.94
2024-02-28T02:20:01.810Z,99269.50
2024-02-28T02:20:40.298Z,99266.63
2024-02-28T02:21:14.528Z,99269.65
2024-02-28T02:21:53.951Z,99269.81
2024-02-28T02:22:30.967Z,99265.21
2024-02-28T02:23:04.882Z,99264.38
2024-02-28T02:23:42.644Z,99263.49
2024-02-28T02:24:16.165Z,99261.90
2024-02-28T02:24:49.682Z,99265.13
2024-02-28T02:25:23.217Z,99264.22
2024-02-28T02:25:56.689Z,99262.49
2024-02-28T02:26:30.147Z,99264.19
2024-02-28T02:27:06.216Z,99264.46
2024-02-28T02:27:39.665Z,99261.96
2024-02-28T02:28:13.324Z,99263.30
2024-02-28T02:28:47.238Z,99261.58
2024-02-28T02:29:20.529Z,99263.14
2024-02-28T02:29:53.945Z,99261.31
2024-02-28T02:30:27.769Z,99263.00
2024-02-28T02:31:01.783Z,99262.75
2024-02-28T02:31:35.431Z,99264.38
2024-02-28T02:32:08.908Z,99262.10
2024-02-28T02:32:42.408Z,99261.63
2024-02-28T02:33:15.780Z,99262.34
2024-02-28T02:33:49.504Z,99261.70
2024-02-28T02:34:22.955Z,99257.33
2024-02-28T02:34:56.233Z,99258.89
2024-02-28T02:35:29.596Z,99258.64
2024-02-28T02:36:03.422Z,99258.48
2024-02-28T02:36:37.317Z,99258.96
2024-02-28T02:37:10.508Z,99260.38
2024-02-28T02:37:47.377Z,99260.48
2024-02-28T02:38:21.162Z,99264.06
2024-02-28T02:38:54.536Z,99263.66
2024-02-28T02:39:28.080Z,99260.83
2024-02-28T02:40:02.517Z,99261.31
2024-02-28T02:40:36.077Z,99262.33
2024-02-28T02:41:09.700Z,99263.29
2024-02-28T02:41:43.893Z,99268.96
2024-02-28T02:42:17.409Z,99266.35
2024-02-28T02:42:50.928Z,99265.47
2024-02-28T02:43:24.354Z,99266.20
2024-02-28T02:43:59.475Z,99263.59
2024-02-28T02:44:32.988Z,99265.48
2024-02-28T02:45:06.960Z,99265.48
2024-02-28T02:45:40.803Z,99263.39
2024-02-28T02:46:14.435Z,99261.11
2024-02-28T02:46:48.032Z,99262.70
2024-02-28T02:47:21.676Z,99259.74
2024-02-28T02:47:55.100Z,99261.21
2024-02-28T02:48:28.718Z,99259.40
2024-02-28T02:49:02.596Z,99259.59
2024-02-28T02:49:35.962Z,99262.39
2024-02-28T02:50:09.450Z,99261.23
2024-02-28T02:50:42.930Z,99264.52
2024-02-28T02:51:16.355Z,99260.67
2024-02-28T02:51:50.000Z,99264.18
2024-02-28T02:52:23.487Z,99261.47
2024-02-28T02:52:56.875Z,99261.64
2024-02-28T02:53:30.475Z,99261.02
2024-02-28T02:54:03.969Z,99259.20
2024-02-28T02:54:38.026Z,99263.53
2024-02-28T02:55:11.705Z,99264.93
2024-02-28T02:55:45.454Z,99264.80
2024-02-28T02:56:19.129Z,99263.56
2024-02-28T02:56:52.545Z,99265.98
2024-02-28T02:57:26.190Z,99265.13
2024-02-28T02:57:59.790Z,99267.82
2024-02-28T02:58:33.342Z,99267.05
2024-02-28T02:59:06.642Z,99271.30
2024-02-28T02:59:39.866Z,99267.58
2024-02-28T03:00:13.688Z,99270.02
2024-02-28T03:00:47.459Z,99271.06
2024-02-28T03:01:21.727Z,99264.48
2024-02-28T03:01:55.605Z,99266.56
2024-02-28T03:02:29.252Z,99266.98
2024-02-28T03:03:02.889Z,99265.45
2024-02-28T03:03:39.188Z,99265.80
2024-02-28T03:04:12.980Z,99265.92
2024-02-28T03:04:46.310Z,99264.67
2024-02-28T03:05:19.945Z,99268.69
2024-02-28T03:05:53.393Z,99269.04
2024-02-28T03:06:26.888Z,99269.43
2024-02-28T03:07:00.401Z,99272.29
2024-02-28T03:07:33.843Z,99270.27
2024-02-28T03:08:07.585Z,99272.02
2024-02-28T03:08:41.107Z,99268.20
2024-02-28T03:09:14.309Z,99264.80
2024-02-28T03:09:48.004Z,99267.73
2024-02-28T03:10:21.587Z,99266.21
2024-02-28T03:10:55.947Z,99267.17
2024-02-28T03:11:29.483Z,99267.32
2024-02-28T03:12:02.964Z,99268.71
2024-02-28T03:12:36.667Z,99267.34
2024-02-28T03:13:10.861Z,99271.67
2024-02-28T03:13:44.391Z,99273.20
2024-02-28T03:14:17.912Z,99269.55
2024-02-28T03:14:51.407Z,99268.77
2024-02-28T03:15:24.703Z,99266.85
2024-02-28T03:15:58.459Z,99267.48
2024-02-28T03:16:31.820Z,99265.20
2024-02-28T03:17:05.356Z,99268.52
2024-02-28T03:17:38.949Z,99267.84
2024-02-28T03:18:12.741Z,99268.73
2024-02-28T03:18:46.035Z,99268.59
2024-02-28T03:19:19.711Z,99269.44
2024-02-28T03:19:53.367Z,99270.89
2024-02-28T03:20:27.335Z,99267.83
2024-02-28T03:21:00.746Z,99271.08
2024-02-28T03:21:34.248Z,99270.53
2024-02-28T03:22:08.148Z,99269.20
2024-02-28T03:22:42.236Z,99267.80
2024-02-28T03:23:15.871Z,99268.91
2024-02-28T03:23:49.541Z,99268.66
2024-02-28T03:24:23.128Z,99269.61
2024-02-28T03:24:57.291Z,99270.60
2024-02-28T03:25:30.906Z,99270.15
2024-02-28T03:26:04.885Z,99271.29
2024-02-28T03:26:38.685Z,99272.81
2024-02-28T03:27:12.204Z,99269.58
2024-02-28T03:27:45.695Z,99267.59
2024-02-28T03:28:19.346Z,99270.30
2024-02-28T03:28:52.515Z,99271.00
2024-02-28T03:29:26.126Z,99276.42
2024-02-28T03:29:59.703Z,99274.79
2024-02-28T03:30:32.908Z,99276.63
2024-02-28T03:31:06.358Z,99275.83
2024-02-28T03:31:39.877Z,99272.98
2024-02-28T03:32:13.435Z,99272.13
2024-02-28T03:32:47.042Z,99272.70
2024-02-28T03:33:20.463Z,99268.96
2024-02-28T03:33:54.157Z,99272.66
2024-02-28T03:34:27.358Z,99270.42
2024-02-28T03:35:01.575Z,99278.11
2024-02-28T03:35:35.064Z,99275.99
2024-02-28T03:36:08.481Z,99277.85
2024-02-28T03:36:42.065Z,99275.41
2024-02-28T03:37:15.515Z,99276.08
2024-02-28T03:37:49.040Z,99278.97
2024-02-28T03:38:22.338Z,99279.96
2024-02-28T03:38:55.869Z,99282.86
2024-02-28T03:39:29.657Z,99282.15
2024-02-28T03:40:03.962Z,99284.70
2024-02-28T03:40:37.644Z,99283.27
2024-02-28T03:41:11.327Z,99282.67
2024-02-28T03:41:45.032Z,99287.14
2024-02-28T03:42:18.595Z,99282.83
2024-02-28T03:42:52.289Z,99282.30
2024-02-28T03:43:25.817Z,99285.11
2024-02-28T03:43:59.415Z,99281.77
2024-02-28T03:44:32.861Z,99283.45
2024-02-28T03:45:06.742Z,99280.16
2024-02-28T03:45:40.917Z,99282.23
2024-02-28T03:46:14.750Z,99282.64
2024-02-28T03:46:48.131Z,99279.98
2024-02-28T03:47:21.817Z,99282.86
2024-02-28T03:47:55.315Z,99282.86
2024-02-28T03:48:29.111Z,99280.75
2024-02-28T03:49:02.595Z,99281.44
2024-02-28T03:49:36.062Z,99279.35
2024-02-28T03:50:09.642Z,99281.52
2024-02-28T03:50:43.002Z,99283.06
2024-02-28T03:51:16.464Z,99282.58
2024-02-28T03:51:50.335Z,99284.30
2024-02-28T03:52:23.690Z,99282.31
2024-02-28T03:52:57.077Z,99285.11
2024-02-28T03:53:30.425Z,99284.29
2024-02-28T03:54:04.467Z,99281.02
2024-02-28T03:54:37.872Z,99278.09
2024-02-28T03:55:11.326Z,99279.80
2024-02-28T03:55:47.576Z,99281.58
2024-02-28T03:56:26.559Z,99281.71
2024-02-28T03:57:01.006Z,99282.45
2024-02-28T03:57:34.611Z,99282.30
2024-02-28T03:58:10.126Z,99281.05
2024-02-28T03:58:43.390Z,99281.77
2024-02-28T03:59:17.089Z,99280.20
2024-02-28T03:59:50.371Z,99278.84
2024-02-28T04:00:24.193Z,99279.52
2024-02-28T04:00:57.715Z,99276.39
2024-02-28T04:01:31.987Z,99278.27
2024-02-28T04:02:05.859Z,99276.72
2024-02-28T04:02:39.116Z,99278.67
2024-02-28T04:03:12.414Z,99277.33
2024-02-28T04:03:46.164Z,99275.28
2024-02-28T04:04:19.895Z,99277.77
2024-02-28T04:04:53.256Z,99277.56
2024-02-28T04:05:26.764Z,99276.00
2024-02-28T04:06:00.316Z,99278.44
2024-02-28T04:06:33.927Z,99274.15
2024-02-28T04:07:07.418Z,99278.96
2024-02-28T04:07:40.920Z,99276.49
2024-02-28T04:08:14.265Z,99276.00
2024-02-28T04:08:47.762Z,99276.30
2024-02-28T04:09:22.007Z,99278.34
2024-02-28T04:09:55.412Z,99280.42
2024-02-28T04:10:28.832Z,99284.23
2024-02-28T04:11:02.586Z,99284.34
2024-02-28T04:11:38.269Z,99286.73
2024-02-28T04:12:12.643Z,99287.11
2024-02-28T04:12:46.197Z,99287.20
2024-02-28T04:13:19.733Z,99285.99
2024-02-28T04:13:53.351Z,99288.90
2024-02-28T04:14:26.711Z,99290.11
2024-02-28T04:15:00.192Z,99287.36
2024-02-28T04:15:33.950Z,99291.05
2024-02-28T04:16:09.126Z,99287.72
2024-02-28T04:16:45.292Z,99287.89
2024-02-28T04:17:18.842Z,99285.25
2024-02-28T04:17:52.069Z,99283.69
2024-02-28T04:18:25.859Z,99283.15
2024-02-28T04:18:59.585Z,99281.94
2024-02-28T04:19:40.794Z,99282.95
2024-02-28T04:20:15.084Z,99279.16
2024-02-28T04:20:48.859Z,99277.98
2024-02-28T04:21:22.457Z,99277.02
2024-02-28T04:21:56.091Z,99278.08
2024-02-28T04:22:29.729Z,99277.91
2024-02-28T04:23:03.525Z,99277.52
2024-02-28T04:23:37.130Z,99275.16
2024-02-28T04:24:15.504Z,99276.26
2024-02-28T04:24:50.357Z,99283.16
2024-02-28T04:25:24.050Z,99282.48
2024-02-28T04:25:57.602Z,99278.73
2024-02-28T04:26:31.290Z,99282.80
2024-02-28T04:27:07.529Z,99281.84
2024-02-28T04:27:41.361Z,99279.15
2024-02-28T04:28:15.358Z,99277.30
2024-02-28T04:28:48.920Z,99276.17
2024-02-28T05:10:51.803Z,99309.95
2024-02-28T05:11:25.158Z,99308.58
2024-02-28T05:11:59.892Z,99309.15
2024-02-28T05:12:33.215Z,99309.17
2024-02-28T05:13:06.684Z,99305.56
2024-02-28T05:13:40.141Z,99308.69
2024-02-28T05:14:13.924Z,99310.21
2024-02-28T05:14:47.289Z,99309.48
2024-02-28T05:15:21.334Z,99312.77
2024-02-28T05:15:55.060Z,99310.80
2024-02-28T05:16:28.653Z,99311.63
2024-02-28T05:17:02.391Z,99317.63
2024-02-28T05:17:35.885Z,99315.84
2024-02-28T05:18:09.426Z,99319.25
2024-02-28T05:18:43.266Z,99316.96
2024-02-28T05:19:19.306Z,99319.68
2024-02-28T05:19:53.163Z,99321.81
2024-02-28T05:20:26.750Z,99322.42
2024-02-28T05:21:02.448Z,99322.37
2024-02-28T05:21:43.313Z,99325.63
2024-02-28T05:22:17.063Z,99322.45
2024-02-28T05:22:50.644Z,99328.45
2024-02-28T05:23:24.786Z,99330.84
2024-02-28T05:23:58.340Z,99334.10
2024-02-28T05:24:31.831Z,99332.48
2024-02-28T05:25:05.923Z,99331.22
2024-02-28T05:25:39.453Z,99334.61
2024-02-28T05:26:13.172Z,99333.69
2024-02-28T05:26:46.674Z,99334.45
2024-02-28T05:27:20.585Z,99334.29
2024-02-28T05:27:54.554Z,99334.52
2024-02-28T05:28:28.370Z,99336.91
2024-02-28T05:29:02.045Z,99335.65
2024-02-28T05:29:35.716Z,99340.52
2024-02-28T05:30:09.686Z,99341.88
2024-02-28T05:30:46.034Z,99340.09
2024-02-28T05:31:28.051Z,99338.98
2024-02-28T05:32:01.562Z,99343.73
2024-02-28T05:32:35.532Z,99341.84
2024-02-28T05:33:09.641Z,99342.52
2024-02-28T05:33:43.499Z,99345.81
2024-02-28T05:34:17.952Z,99343.04
2024-02-28T05:34:51.541Z,99340.05
2024-02-28T05:35:25.112Z,99340.17
2024-02-28T05:35:59.074Z,99339.65
2024-02-28T05:36:33.083Z,99340.51
2024-02-28T05:37:06.554Z,99341.73
2024-02-28T05:37:40.231Z,99339.39
2024-02-28T05:38:13.898Z,99338.70
2024-02-28T05:38:48.257Z,99338.55
2024-02-28T05:39:21.925Z,99343.60
2024-02-28T05:39:55.510Z,99341.31
2024-02-28T05:40:29.542Z,99343.30
2024-02-28T05:41:03.336Z,99345.08
2024-02-28T05:41:36.899Z,99339.11
2024-02-28T05:42:10.723Z,99341.45
2024-02-28T05:42:44.469Z,99341.64
2024-02-28T05:43:18.058Z,99338.63
2024-02-28T05:43:51.887Z,99343.02
2024-02-28T05:44:26.199Z,99346.53
2024-02-28T05:44:59.645Z,99351.05
2024-02-28T05:45:33.360Z,99347.84
2024-02-28T05:46:06.750Z,99346.33
2024-02-28T05:46:40.146Z,99346.41
2024-02-28T05:47:14.545Z,99345.09
2024-02-28T05:47:48.161Z,99350.71
2024-02-28T05:48:21.946Z,99349.09
2024-02-28T05:48:55.912Z,99349.00
2024-02-28T05:49:29.610Z,99348.45
2024-02-28T05:50:03.093Z,99349.27
2024-02-28T05:50:37.023Z,99351.25
2024-02-28T05:51:12.673Z,99347.02
2024-02-28T05:51:46.312Z,99346.28
2024-02-28T05:57:44.899Z,99348.87
2024-02-28T05:58:18.342Z,99345.39
2024-02-28T05:58:51.795Z,99346.86
2024-02-28T05:59:25.151Z,99348.76
2024-02-28T05:59:58.767Z,99348.86
2024-02-28T06:00:32.278Z,99351.47
2024-02-28T06:01:06.108Z,99350.63
2024-02-28T06:01:41.917Z,99348.30
2024-02-28T06:02:15.688Z,99349.99
2024-02-28T06:02:49.792Z,99347.97
2024-02-28T06:03:23.421Z,99348.98
2024-02-28T06:03:57.196Z,99349.64
2024-02-28T06:04:31.165Z,99350.44
2024-02-28T06:05:05.027Z,99349.23
2024-02-28T06:05:40.838Z,99350.25
2024-02-28T06:06:16.237Z,99353.70
2024-02-28T06:06:51.050Z,99351.92
2024-02-28T06:07:25.682Z,99348.86
2024-02-28T06:07:59.221Z,99353.02
2024-02-28T06:08:36.012Z,99353.75
2024-02-28T06:09:09.469Z,99354.67
2024-02-28T06:09:43.144Z,99354.61
2024-02-28T06:10:16.772Z,99353.55
2024-02-28T06:10:50.242Z,99354.23
2024-02-28T06:11:23.723Z,99354.92
2024-02-28T06:12:00.455Z,99357.27
2024-02-28T06:12:34.325Z,99357.71
2024-02-28T06:13:07.877Z,99353.67
2024-02-28T06:13:44.519Z,99354.39
2024-02-28T06:14:18.111Z,99355.55
2024-02-28T06:14:51.425Z,99354.36
2024-02-28T06:15:25.219Z,99357.35
2024-02-28T06:15:59.283Z,99356.42
2024-02-28T06:16:33.126Z,99355.40
2024-02-28T06:17:06.867Z,99352.80
2024-02-28T06:17:40.804Z,99354.17
2024-02-28T06:18:14.936Z,99353.81
2024-02-28T06:18:48.342Z,99354.11
2024-02-28T06:19:22.143Z,99353.02
2024-02-28T06:19:55.611Z,99352.27
2024-02-28T06:20:29.734Z,99353.94
2024-02-28T06:21:03.817Z,99357.51
2024-02-28T06:21:37.359Z,99358.16
2024-02-28T06:22:11.017Z,99356.69
2024-02-28T06:22:45.095Z,99360.14
2024-02-28T06:23:27.145Z,99362.32
2024-02-28T06:24:02.130Z,99362.13
2024-02-28T06:24:35.951Z,99361.67
2024-02-28T06:25:19.249Z,99364.19
2024-02-28T06:25:52.911Z,99364.92
2024-02-28T06:26:26.587Z,99360.86
2024-02-28T06:26:59.874Z,99365.25
2024-02-28T06:27:33.397Z,99367.30
2024-02-28T06:28:08.297Z,99364.98
2024-02-28T06:28:44.103Z,99367.11
2024-02-28T06:29:17.500Z,99370.34
2024-02-28T06:29:51.311Z,99364.71
2024-02-28T06:30:24.890Z,99365.79
2024-02-28T06:30:58.724Z,99363.21
2024-02-28T06:31:32.813Z,99364.55
2024-02-28T06:32:06.464Z,99364.41
2024-02-28T06:32:40.333Z,99363.42
2024-02-28T06:33:14.642Z,99363.20
2024-02-28T06:33:48.075Z,99359.58
2024-02-28T06:34:21.767Z,99361.50
2024-02-28T06:34:55.667Z,99363.78
2024-02-28T06:35:29.532Z,99364.73
2024-02-28T06:36:03.311Z,99364.55
2024-02-28T06:36:36.918Z,99363.80
2024-02-28T06:37:10.423Z,99363.86
2024-02-28T06:37:45.616Z,99363.02
2024-02-28T06:38:19.207Z,99363.65
2024-02-28T06:38:52.799Z,99361.60
2024-02-28T06:39:26.254Z,99360.69
2024-02-28T06:39:59.785Z,99364.98
2024-02-28T06:40:33.708Z,99363.19
2024-02-28T06:41:07.464Z,99366.23
2024-02-28T06:41:41.135Z,99363.30
2024-02-28T06:42:14.808Z,99366.23
2024-02-28T06:42:48.328Z,99365.29
2024-02-28T06:43:22.309Z,99364.39
2024-02-28T06:43:55.626Z,99364.55
2024-02-28T06:44:29.497Z,99363.45
2024-02-28T06:45:02.966Z,99361.66
2024-02-28T06:45:38.447Z,99363.95
2024-02-28T06:46:12.312Z,99367.73
2024-02-28T06:46:45.967Z,99364.09
2024-02-28T06:47:22.031Z,99364.45
2024-02-28T06:47:55.645Z,99365.79
2024-02-28T06:48:29.651Z,99367.45
2024-02-28T06:49:03.670Z,99370.34
2024-02-28T06:49:37.906Z,99370.11
2024-02-28T06:50:11.187Z,99369.04
2024-02-28T06:50:44.659Z,99376.93
2024-02-28T06:51:19.313Z,99373.71
2024-02-28T06:51:52.988Z,99377.91
2024-02-28T06:52:26.466Z,99377.08
2024-02-28T06:53:00.383Z,99379.62
2024-02-28T06:53:34.040Z,99384.75
2024-02-28T06:54:07.618Z,99382.66
2024-02-28T06:54:41.894Z,99382.19
2024-02-28T06:55:16.053Z,99382.33
2024-02-28T06:55:52.597Z,99381.88
2024-02-28T06:56:25.966Z,99381.63
2024-02-28T06:56:59.364Z,99378.02
2024-02-28T06:57:32.775Z,99379.89
2024-02-28T06:58:06.966Z,99379.23
2024-02-28T06:58:40.603Z,99377.13
2024-02-28T06:59:14.237Z,99378.98
2024-02-28T06:59:48.034Z,99380.24
2024-02-28T07:00:21.862Z,99377.96
2024-02-28T07:00:56.967Z,99379.14
2024-02-28T07:01:32.145Z,99378.23
2024-02-28T07:02:06.195Z,99380.33
2024-02-28T07:02:39.841Z,99377.52
2024-02-28T07:03:13.108Z,99375.43
2024-02-28T07:03:46.650Z,99375.46
2024-02-28T07:04:20.073Z,99374.89
2024-02-28T07:04:53.568Z,99376.48
2024-02-28T07:05:27.289Z,99376.59
2024-02-28T07:06:00.732Z,99374.48
2024-02-28T07:06:34.515Z,99375.45
2024-02-28T07:07:08.141Z,99376.25
2024-02-28T07:07:41.750Z,99377.48
2024-02-28T07:08:16.054Z,99378.02
2024-02-28T07:08:49.601Z,99376.96
2024-02-28T07:09:23.249Z,99376.27
2024-02-28T07:09:56.732Z,99374.95
2024-02-28T07:10:30.386Z,99373.95
2024-02-28T07:11:04.206Z,99377.70
2024-02-28T07:11:38.965Z,99375.05
2024-02-28T07:12:12.579Z,99375.38
2024-02-28T07:12:46.313Z,99376.73
2024-02-28T07:13:19.640Z,99374.05
2024-02-28T07:13:53.039Z,99377.98
2024-02-28T07:14:26.500Z,99372.48
2024-02-28T07:15:00.204Z,99378.21
2024-02-28T07:15:33.945Z,99373.05
2024-02-28T07:16:08.003Z,99373.64
2024-02-28T07:16:41.463Z,99375.81
2024-02-28T07:17:14.771Z,99374.90
2024-02-28T07:17:48.757Z,99374.82
2024-02-28T07:18:22.974Z,99377.11
2024-02-28T07:18:56.603Z,99380.90
2024-02-28T07:19:30.632Z,99383.16
2024-02-28T07:20:04.292Z,99388.59
2024-02-28T07:20:37.897Z,99386.85
2024-02-28T07:21:11.300Z,99383.86
2024-02-28T07:21:45.690Z,99387.65
2024-02-28T07:22:19.784Z,99389.36
2024-02-28T07:22:53.425Z,99383.75
2024-02-28T07:23:27.181Z,99385.65
2024-02-28T07:24:00.779Z,99389.36
2024-02-28T07:24:34.745Z,99386.71
2024-02-28T07:25:09.354Z,99384.48
2024-02-28T07:25:43.009Z,99381.83
2024-02-28T07:26:23.132Z,99383.48